sensor_id;sensor_type;location;lat;lon;timestamp;pressure;altitude;pressure_sealevel;temperature;humidity
47873;BME280;73966;47.438;18.912;2024-01-06T00:02:13;98963.22;;;8.61;61.57
47873;BME280;73966;47.438;18.912;2024-01-06T00:04:42;98962.81;;;8.43;62.06
47873;BME280;73966;47.438;18.912;2024-01-06T00:07:11;98963.41;;;8.47;62.03
47873;BME280;73966;47.438;18.912;2024-01-06T00:09:43;98956.94;;;8.51;61.67
47873;BME280;73966;47.438;18.912;2024-01-06T00:12:12;98947.84;;;8.44;61.90
47873;BME280;73966;47.438;18.912;2024-01-06T00:14:41;98948.69;;;8.31;62.10
47873;BME280;73966;47.438;18.912;2024-01-06T00:17:13;98945.47;;;8.28;62.18
47873;BME280;73966;47.438;18.912;2024-01-06T00:19:42;98936.81;;;8.26;62.25
47873;BME280;73966;47.438;18.912;2024-01-06T00:22:12;98939.81;;;8.21;62.29
47873;BME280;73966;47.438;18.912;2024-01-06T00:24:42;98935.75;;;8.28;61.66
47873;BME280;73966;47.438;18.912;2024-01-06T00:27:12;98938.50;;;8.27;61.71
47873;BME280;73966;47.438;18.912;2024-01-06T00:29:42;98935.09;;;8.13;61.90
47873;BME280;73966;47.438;18.912;2024-01-06T00:32:11;98951.50;;;8.06;62.07
47873;BME280;73966;47.438;18.912;2024-01-06T00:34:40;98939.56;;;8.24;61.14
47873;BME280;73966;47.438;18.912;2024-01-06T00:37:10;98937.06;;;7.75;62.49
47873;BME280;73966;47.438;18.912;2024-01-06T00:39:39;98933.66;;;7.61;62.66
47873;BME280;73966;47.438;18.912;2024-01-06T00:42:09;98933.44;;;7.64;62.30
47873;BME280;73966;47.438;18.912;2024-01-06T00:44:38;98921.53;;;7.59;62.77
47873;BME280;73966;47.438;18.912;2024-01-06T00:47:07;98927.72;;;7.34;63.11
47873;BME280;73966;47.438;18.912;2024-01-06T00:49:37;98936.59;;;7.33;63.34
47873;BME280;73966;47.438;18.912;2024-01-06T00:52:06;98922.56;;;7.32;63.68
47873;BME280;73966;47.438;18.912;2024-01-06T00:54:35;98922.34;;;7.72;62.56
47873;BME280;73966;47.438;18.912;2024-01-06T00:57:04;98919.72;;;7.59;62.76
47873;BME280;73966;47.438;18.912;2024-01-06T00:59:35;98923.53;;;7.79;62.34
47873;BME280;73966;47.438;18.912;2024-01-06T01:02:04;98932.41;;;7.54;63.14
47873;BME280;73966;47.438;18.912;2024-01-06T01:04:33;98928.44;;;7.49;63.30
47873;BME280;73966;47.438;18.912;2024-01-06T01:07:02;98931.44;;;7.68;62.88
47873;BME280;73966;47.438;18.912;2024-01-06T01:09:32;98923.59;;;7.91;62.05
47873;BME280;73966;47.438;18.912;2024-01-06T01:12:01;98920.88;;;7.92;62.03
47873;BME280;73966;47.438;18.912;2024-01-06T01:14:31;98917.34;;;7.80;62.58
47873;BME280;73966;47.438;18.912;2024-01-06T01:17:02;98924.03;;;6.87;65.42
47873;BME280;73966;47.438;18.912;2024-01-06T01:19:32;98919.97;;;7.80;63.11
47873;BME280;73966;47.438;18.912;2024-01-06T01:22:01;98930.56;;;7.92;62.67
47873;BME280;73966;47.438;18.912;2024-01-06T01:24:31;98916.53;;;7.67;63.57
47873;BME280;73966;47.438;18.912;2024-01-06T01:27:00;98925.53;;;7.64;63.69
47873;BME280;73966;47.438;18.912;2024-01-06T01:29:30;98922.84;;;7.77;63.51
47873;BME280;73966;47.438;18.912;2024-01-06T01:31:59;98915.31;;;8.08;62.65
47873;BME280;73966;47.438;18.912;2024-01-06T01:34:31;98913.75;;;7.81;63.70
47873;BME280;73966;47.438;18.912;2024-01-06T01:37:01;98912.63;;;7.49;64.88
47873;BME280;73966;47.438;18.912;2024-01-06T01:39:30;98912.72;;;7.71;64.27
47873;BME280;73966;47.438;18.912;2024-01-06T01:41:59;98913.88;;;7.43;65.09
47873;BME280;73966;47.438;18.912;2024-01-06T01:44:29;98903.19;;;7.33;65.56
47873;BME280;73966;47.438;18.912;2024-01-06T01:46:58;98903.09;;;7.22;66.31
47873;BME280;73966;47.438;18.912;2024-01-06T01:49:27;98898.34;;;7.51;65.49
47873;BME280;73966;47.438;18.912;2024-01-06T01:51:59;98890.09;;;8.04;63.78
47873;BME280;73966;47.438;18.912;2024-01-06T01:54:32;98891.00;;;7.68;65.03
47873;BME280;73966;47.438;18.912;2024-01-06T01:57:02;98888.78;;;7.50;65.51
47873;BME280;73966;47.438;18.912;2024-01-06T01:59:33;98882.25;;;7.43;65.95
47873;BME280;73966;47.438;18.912;2024-01-06T02:02:02;98886.88;;;7.15;66.66
47873;BME280;73966;47.438;18.912;2024-01-06T02:04:32;98891.56;;;7.60;65.66
47873;BME280;73966;47.438;18.912;2024-01-06T02:07:03;98884.91;;;8.02;64.07
47873;BME280;73966;47.438;18.912;2024-01-06T02:09:33;98882.44;;;7.53;65.68
47873;BME280;73966;47.438;18.912;2024-01-06T02:12:03;98883.66;;;7.60;65.60
47873;BME280;73966;47.438;18.912;2024-01-06T02:14:33;98884.59;;;7.83;65.19
47873;BME280;73966;47.438;18.912;2024-01-06T02:17:03;98875.97;;;7.81;64.91
47873;BME280;73966;47.438;18.912;2024-01-06T02:19:32;98876.31;;;8.00;64.51
47873;BME280;73966;47.438;18.912;2024-01-06T02:22:09;98874.63;;;8.10;64.13
47873;BME280;73966;47.438;18.912;2024-01-06T02:24:38;98872.25;;;8.19;63.99
47873;BME280;73966;47.438;18.912;2024-01-06T02:27:08;98869.59;;;7.72;65.75
47873;BME280;73966;47.438;18.912;2024-01-06T02:29:37;98858.59;;;7.54;66.36
47873;BME280;73966;47.438;18.912;2024-01-06T02:32:06;98863.41;;;8.20;64.48
47873;BME280;73966;47.438;18.912;2024-01-06T02:34:38;98858.53;;;8.02;65.08
47873;BME280;73966;47.438;18.912;2024-01-06T02:37:09;98863.03;;;7.78;65.67
47873;BME280;73966;47.438;18.912;2024-01-06T02:39:38;98859.69;;;7.87;65.69
47873;BME280;73966;47.438;18.912;2024-01-06T02:42:08;98861.09;;;7.45;67.30
47873;BME280;73966;47.438;18.912;2024-01-06T02:44:37;98853.66;;;7.74;66.39
47873;BME280;73966;47.438;18.912;2024-01-06T02:47:06;98849.63;;;7.81;66.22
47873;BME280;73966;47.438;18.912;2024-01-06T02:49:35;98854.88;;;7.81;66.02
47873;BME280;73966;47.438;18.912;2024-01-06T02:52:05;98849.25;;;7.50;66.76
47873;BME280;73966;47.438;18.912;2024-01-06T02:54:36;98850.44;;;7.81;66.01
47873;BME280;73966;47.438;18.912;2024-01-06T02:57:06;98839.06;;;7.81;66.11
47873;BME280;73966;47.438;18.912;2024-01-06T02:59:35;98838.31;;;8.14;64.74
47873;BME280;73966;47.438;18.912;2024-01-06T03:02:08;98829.69;;;8.12;64.75
47873;BME280;73966;47.438;18.912;2024-01-06T03:04:37;98826.09;;;8.24;64.56
47873;BME280;73966;47.438;18.912;2024-01-06T03:07:06;98831.19;;;8.03;65.29
47873;BME280;73966;47.438;18.912;2024-01-06T03:09:37;98824.59;;;7.98;65.38
47873;BME280;73966;47.438;18.912;2024-01-06T03:12:08;98809.59;;;7.87;66.02
47873;BME280;73966;47.438;18.912;2024-01-06T03:14:37;98809.88;;;8.06;65.31
47873;BME280;73966;47.438;18.912;2024-01-06T03:17:10;98801.00;;;8.19;65.06
47873;BME280;73966;47.438;18.912;2024-01-06T03:19:40;98805.97;;;7.77;66.38
47873;BME280;73966;47.438;18.912;2024-01-06T03:22:09;98794.59;;;7.76;66.56
47873;BME280;73966;47.438;18.912;2024-01-06T03:24:40;98790.91;;;7.90;66.19
47873;BME280;73966;47.438;18.912;2024-01-06T03:27:09;98806.38;;;7.95;65.89
47873;BME280;73966;47.438;18.912;2024-01-06T03:29:39;98804.75;;;7.70;66.88
47873;BME280;73966;47.438;18.912;2024-01-06T03:32:14;98809.16;;;8.04;65.68
47873;BME280;73966;47.438;18.912;2024-01-06T03:34:44;98803.16;;;8.13;65.48
47873;BME280;73966;47.438;18.912;2024-01-06T03:37:13;98802.06;;;7.58;67.11
47873;BME280;73966;47.438;18.912;2024-01-06T03:39:48;98807.34;;;8.05;65.87
47873;BME280;73966;47.438;18.912;2024-01-06T03:42:18;98812.63;;;8.05;65.75
47873;BME280;73966;47.438;18.912;2024-01-06T03:44:47;98818.81;;;7.81;66.55
47873;BME280;73966;47.438;18.912;2024-01-06T03:47:18;98820.69;;;7.79;66.54
47873;BME280;73966;47.438;18.912;2024-01-06T03:49:47;98818.63;;;8.07;65.78
47873;BME280;73966;47.438;18.912;2024-01-06T03:52:17;98837.59;;;8.23;65.08
47873;BME280;73966;47.438;18.912;2024-01-06T03:54:48;98849.41;;;7.84;66.32
47873;BME280;73966;47.438;18.912;2024-01-06T03:57:20;98856.25;;;7.62;67.25
47873;BME280;73966;47.438;18.912;2024-01-06T03:59:49;98859.03;;;7.96;66.37
47873;BME280;73966;47.438;18.912;2024-01-06T04:02:19;98850.25;;;7.60;68.01
47873;BME280;73966;47.438;18.912;2024-01-06T04:04:51;98829.34;;;7.81;67.81
47873;BME280;73966;47.438;18.912;2024-01-06T04:07:21;98833.03;;;8.14;66.82
47873;BME280;73966;47.438;18.912;2024-01-06T04:09:51;98831.06;;;7.58;68.50
47873;BME280;73966;47.438;18.912;2024-01-06T04:12:20;98833.19;;;7.77;68.11
47873;BME280;73966;47.438;18.912;2024-01-06T04:14:50;98839.69;;;7.84;68.10
47873;BME280;73966;47.438;18.912;2024-01-06T04:17:19;98864.34;;;7.83;67.88
47873;BME280;73966;47.438;18.912;2024-01-06T04:19:51;98857.91;;;7.63;69.02
47873;BME280;73966;47.438;18.912;2024-01-06T04:22:20;98866.88;;;7.85;68.80
47873;BME280;73966;47.438;18.912;2024-01-06T04:24:51;98862.31;;;7.87;68.74
47873;BME280;73966;47.438;18.912;2024-01-06T04:27:20;98859.53;;;7.77;69.32
47873;BME280;73966;47.438;18.912;2024-01-06T04:29:50;98855.81;;;7.69;69.85
47873;BME280;73966;47.438;18.912;2024-01-06T04:32:24;98852.81;;;8.08;68.71
47873;BME280;73966;47.438;18.912;2024-01-06T04:34:53;98859.34;;;7.56;70.61
47873;BME280;73966;47.438;18.912;2024-01-06T04:37:22;98849.09;;;7.76;70.13
47873;BME280;73966;47.438;18.912;2024-01-06T04:39:52;98842.72;;;7.67;70.33
47873;BME280;73966;47.438;18.912;2024-01-06T04:42:22;98843.00;;;7.51;71.25
47873;BME280;73966;47.438;18.912;2024-01-06T04:44:52;98850.94;;;7.86;70.29
47873;BME280;73966;47.438;18.912;2024-01-06T04:47:21;98843.63;;;8.25;68.82
47873;BME280;73966;47.438;18.912;2024-01-06T04:49:54;98842.09;;;7.99;69.70
47873;BME280;73966;47.438;18.912;2024-01-06T04:52:23;98835.75;;;7.66;71.07
47873;BME280;73966;47.438;18.912;2024-01-06T04:54:54;98831.69;;;7.97;70.26
47873;BME280;73966;47.438;18.912;2024-01-06T04:57:23;98827.63;;;8.16;69.41
47873;BME280;73966;47.438;18.912;2024-01-06T04:59:52;98836.59;;;7.67;71.40
47873;BME280;73966;47.438;18.912;2024-01-06T05:02:33;98837.53;;;7.89;70.24
47873;BME280;73966;47.438;18.912;2024-01-06T05:05:02;98828.22;;;7.97;69.98
47873;BME280;73966;47.438;18.912;2024-01-06T05:07:32;98823.94;;;7.83;70.83
47873;BME280;73966;47.438;18.912;2024-01-06T05:10:02;98817.66;;;7.61;71.56
47873;BME280;73966;47.438;18.912;2024-01-06T05:12:37;98817.63;;;7.85;70.66
47873;BME280;73966;47.438;18.912;2024-01-06T05:15:08;98815.62;;;8.00;70.27
47873;BME280;73966;47.438;18.912;2024-01-06T05:17:38;98814.91;;;7.63;71.79
47873;BME280;73966;47.438;18.912;2024-01-06T05:20:08;98802.94;;;8.17;69.93
47873;BME280;73966;47.438;18.912;2024-01-06T05:22:40;98818.25;;;8.00;70.28
47873;BME280;73966;47.438;18.912;2024-01-06T05:25:15;98815.25;;;7.94;70.82
47873;BME280;73966;47.438;18.912;2024-01-06T05:27:45;98816.25;;;7.80;71.24
47873;BME280;73966;47.438;18.912;2024-01-06T05:30:14;98817.06;;;8.04;70.71
47873;BME280;73966;47.438;18.912;2024-01-06T05:32:43;98831.78;;;7.96;71.13
47873;BME280;73966;47.438;18.912;2024-01-06T05:35:12;98832.78;;;7.71;71.78
47873;BME280;73966;47.438;18.912;2024-01-06T05:37:42;98832.25;;;7.89;71.14
47873;BME280;73966;47.438;18.912;2024-01-06T05:40:11;98832.72;;;7.59;72.36
47873;BME280;73966;47.438;18.912;2024-01-06T05:42:42;98835.91;;;8.22;70.40
47873;BME280;73966;47.438;18.912;2024-01-06T05:45:11;98830.78;;;8.32;70.03
47873;BME280;73966;47.438;18.912;2024-01-06T05:47:44;98838.50;;;8.00;70.97
47873;BME280;73966;47.438;18.912;2024-01-06T05:50:15;98854.62;;;7.49;73.06
47873;BME280;73966;47.438;18.912;2024-01-06T05:52:44;98853.00;;;7.94;71.69
47873;BME280;73966;47.438;18.912;2024-01-06T05:55:15;98850.78;;;8.12;70.85
47873;BME280;73966;47.438;18.912;2024-01-06T05:57:46;98850.63;;;7.67;72.49
47873;BME280;73966;47.438;18.912;2024-01-06T06:00:16;98852.56;;;8.11;71.29
47873;BME280;73966;47.438;18.912;2024-01-06T06:02:46;98844.91;;;8.08;71.17
47873;BME280;73966;47.438;18.912;2024-01-06T06:05:15;98838.84;;;7.84;72.36
47873;BME280;73966;47.438;18.912;2024-01-06T06:07:44;98838.25;;;7.92;72.33
47873;BME280;73966;47.438;18.912;2024-01-06T06:10:14;98838.66;;;7.74;72.85
47873;BME280;73966;47.438;18.912;2024-01-06T06:12:45;98842.09;;;7.63;73.72
47873;BME280;73966;47.438;18.912;2024-01-06T06:15:14;98837.91;;;7.37;74.31
47873;BME280;73966;47.438;18.912;2024-01-06T06:17:47;98831.59;;;7.75;73.34
47873;BME280;73966;47.438;18.912;2024-01-06T06:20:16;98839.59;;;7.38;74.41
47873;BME280;73966;47.438;18.912;2024-01-06T06:22:45;98854.09;;;7.68;73.75
47873;BME280;73966;47.438;18.912;2024-01-06T06:25:14;98843.22;;;7.24;75.39
47873;BME280;73966;47.438;18.912;2024-01-06T06:27:48;98836.94;;;7.14;75.92
47873;BME280;73966;47.438;18.912;2024-01-06T06:30:18;98841.81;;;7.07;76.19
47873;BME280;73966;47.438;18.912;2024-01-06T06:32:47;98834.09;;;7.41;75.09
47873;BME280;73966;47.438;18.912;2024-01-06T06:35:16;98825.81;;;7.34;75.14
47873;BME280;73966;47.438;18.912;2024-01-06T06:37:46;98816.97;;;7.71;73.73
47873;BME280;73966;47.438;18.912;2024-01-06T06:40:17;98822.97;;;7.73;73.81
47873;BME280;73966;47.438;18.912;2024-01-06T06:42:48;98825.03;;;7.45;74.77
47873;BME280;73966;47.438;18.912;2024-01-06T06:45:17;98834.53;;;7.35;74.91
47873;BME280;73966;47.438;18.912;2024-01-06T06:47:50;98837.25;;;7.46;74.56
47873;BME280;73966;47.438;18.912;2024-01-06T06:50:19;98833.25;;;7.64;73.60
47873;BME280;73966;47.438;18.912;2024-01-06T06:52:49;98836.28;;;7.47;74.69
47873;BME280;73966;47.438;18.912;2024-01-06T06:55:18;98840.19;;;7.66;73.87
47873;BME280;73966;47.438;18.912;2024-01-06T06:57:49;98830.25;;;8.04;72.60
47873;BME280;73966;47.438;18.912;2024-01-06T07:00:20;98832.50;;;7.62;73.76
47873;BME280;73966;47.438;18.912;2024-01-06T07:02:49;98827.59;;;7.93;72.98
47873;BME280;73966;47.438;18.912;2024-01-06T07:05:18;98827.81;;;7.55;74.39
47873;BME280;73966;47.438;18.912;2024-01-06T07:07:48;98823.91;;;7.72;73.58
47873;BME280;73966;47.438;18.912;2024-01-06T07:10:17;98817.56;;;7.74;73.66
47873;BME280;73966;47.438;18.912;2024-01-06T07:12:46;98816.22;;;7.93;72.95
47873;BME280;73966;47.438;18.912;2024-01-06T07:15:22;98810.38;;;8.23;71.77
47873;BME280;73966;47.438;18.912;2024-01-06T07:17:56;98824.91;;;7.82;73.37
47873;BME280;73966;47.438;18.912;2024-01-06T07:20:25;98812.72;;;8.03;72.51
47873;BME280;73966;47.438;18.912;2024-01-06T07:22:54;98822.19;;;7.95;73.14
47873;BME280;73966;47.438;18.912;2024-01-06T07:25:23;98819.87;;;8.36;71.75
47873;BME280;73966;47.438;18.912;2024-01-06T07:27:53;98829.06;;;8.08;72.48
47873;BME280;73966;47.438;18.912;2024-01-06T07:30:24;98834.28;;;8.32;72.06
47873;BME280;73966;47.438;18.912;2024-01-06T07:32:58;98823.75;;;8.55;71.30
47873;BME280;73966;47.438;18.912;2024-01-06T07:35:28;98817.88;;;8.74;70.85
47873;BME280;73966;47.438;18.912;2024-01-06T07:37:57;98814.38;;;8.96;70.08
47873;BME280;73966;47.438;18.912;2024-01-06T07:40:26;98820.97;;;8.90;69.98
47873;BME280;73966;47.438;18.912;2024-01-06T07:42:58;98806.22;;;8.76;70.54
47873;BME280;73966;47.438;18.912;2024-01-06T07:45:29;98812.28;;;9.10;69.66
47873;BME280;73966;47.438;18.912;2024-01-06T07:47:59;98813.63;;;9.05;69.73
47873;BME280;73966;47.438;18.912;2024-01-06T07:50:29;98810.75;;;9.08;69.81
47873;BME280;73966;47.438;18.912;2024-01-06T07:52:58;98813.16;;;9.43;77.44
47873;BME280;73966;47.438;18.912;2024-01-06T07:55:27;98809.28;;;9.79;76.07
47873;BME280;73966;47.438;18.912;2024-01-06T07:57:57;98807.91;;;9.32;72.80
47873;BME280;73966;47.438;18.912;2024-01-06T08:00:30;98808.69;;;9.55;72.42
47873;BME280;73966;47.438;18.912;2024-01-06T08:03:00;98802.44;;;10.19;72.50
47873;BME280;73966;47.438;18.912;2024-01-06T08:05:34;98806.59;;;10.32;68.48
47873;BME280;73966;47.438;18.912;2024-01-06T08:08:04;98807.41;;;10.12;66.42
47873;BME280;73966;47.438;18.912;2024-01-06T08:10:33;98803.53;;;10.37;64.95
47873;BME280;73966;47.438;18.912;2024-01-06T08:13:02;98799.28;;;10.25;65.26
47873;BME280;73966;47.438;18.912;2024-01-06T08:15:33;98795.28;;;10.09;65.46
47873;BME280;73966;47.438;18.912;2024-01-06T08:18:02;98798.47;;;9.82;66.24
47873;BME280;73966;47.438;18.912;2024-01-06T08:20:33;98798.94;;;9.55;67.19
47873;BME280;73966;47.438;18.912;2024-01-06T08:23:03;98804.41;;;9.43;67.58
47873;BME280;73966;47.438;18.912;2024-01-06T08:25:32;98809.31;;;9.04;68.78
47873;BME280;73966;47.438;18.912;2024-01-06T08:28:01;98811.13;;;8.81;69.89
47873;BME280;73966;47.438;18.912;2024-01-06T08:30:30;98812.56;;;8.96;69.73
47873;BME280;73966;47.438;18.912;2024-01-06T08:33:01;98807.44;;;8.61;70.12
47873;BME280;73966;47.438;18.912;2024-01-06T08:35:30;98815.91;;;9.09;69.30
47873;BME280;73966;47.438;18.912;2024-01-06T08:37:59;98820.25;;;8.88;70.16
47873;BME280;73966;47.438;18.912;2024-01-06T08:40:28;98822.38;;;9.05;69.45
47873;BME280;73966;47.438;18.912;2024-01-06T08:42:58;98818.84;;;8.73;70.65
47873;BME280;73966;47.438;18.912;2024-01-06T08:45:29;98819.37;;;8.20;72.59
47873;BME280;73966;47.438;18.912;2024-01-06T08:47:58;98825.66;;;8.42;71.94
47873;BME280;73966;47.438;18.912;2024-01-06T08:50:29;98812.78;;;8.26;72.54
47873;BME280;73966;47.438;18.912;2024-01-06T08:52:58;98816.16;;;8.39;72.33
47873;BME280;73966;47.438;18.912;2024-01-06T08:55:28;98819.28;;;7.86;74.58
47873;BME280;73966;47.438;18.912;2024-01-06T08:57:57;98823.50;;;7.89;74.27
47873;BME280;73966;47.438;18.912;2024-01-06T09:00:26;98827.28;;;7.74;74.51
47873;BME280;73966;47.438;18.912;2024-01-06T09:02:56;98826.81;;;7.69;75.34
47873;BME280;73966;47.438;18.912;2024-01-06T09:05:25;98820.09;;;7.76;75.08
47873;BME280;73966;47.438;18.912;2024-01-06T09:07:55;98820.16;;;7.98;74.64
47873;BME280;73966;47.438;18.912;2024-01-06T09:10:24;98817.41;;;8.00;74.65
47873;BME280;73966;47.438;18.912;2024-01-06T09:12:56;98814.53;;;7.68;75.99
47873;BME280;73966;47.438;18.912;2024-01-06T09:15:28;98824.81;;;7.59;76.44
47873;BME280;73966;47.438;18.912;2024-01-06T09:17:57;98821.19;;;7.73;75.31
47873;BME280;73966;47.438;18.912;2024-01-06T09:20:27;98815.72;;;7.99;74.49
47873;BME280;73966;47.438;18.912;2024-01-06T09:22:58;98815.31;;;8.16;73.90
47873;BME280;73966;47.438;18.912;2024-01-06T09:25:27;98814.19;;;8.19;73.81
47873;BME280;73966;47.438;18.912;2024-01-06T09:27:56;98818.59;;;8.65;72.19
47873;BME280;73966;47.438;18.912;2024-01-06T09:30:26;98819.44;;;8.54;72.42
47873;BME280;73966;47.438;18.912;2024-01-06T09:32:56;98817.75;;;8.42;72.32
47873;BME280;73966;47.438;18.912;2024-01-06T09:35:26;98817.88;;;8.51;72.40
47873;BME280;73966;47.438;18.912;2024-01-06T09:37:55;98816.50;;;8.34;72.57
47873;BME280;73966;47.438;18.912;2024-01-06T09:40:26;98808.72;;;8.33;72.98
47873;BME280;73966;47.438;18.912;2024-01-06T09:42:56;98808.88;;;8.54;72.75
47873;BME280;73966;47.438;18.912;2024-01-06T09:45:25;98809.97;;;8.40;72.78
47873;BME280;73966;47.438;18.912;2024-01-06T09:47:54;98815.81;;;8.55;72.69
47873;BME280;73966;47.438;18.912;2024-01-06T09:50:25;98817.75;;;8.75;72.03
47873;BME280;73966;47.438;18.912;2024-01-06T09:52:56;98817.63;;;8.77;72.02
47873;BME280;73966;47.438;18.912;2024-01-06T09:55:34;98819.81;;;8.83;71.71
47873;BME280;73966;47.438;18.912;2024-01-06T09:58:04;98813.56;;;8.73;72.01
47873;BME280;73966;47.438;18.912;2024-01-06T10:00:35;98808.22;;;8.17;74.25
47873;BME280;73966;47.438;18.912;2024-01-06T10:03:05;98823.50;;;8.58;72.72
47873;BME280;73966;47.438;18.912;2024-01-06T10:05:35;98813.50;;;8.17;73.93
47873;BME280;73966;47.438;18.912;2024-01-06T10:08:05;98806.97;;;8.45;73.11
47873;BME280;73966;47.438;18.912;2024-01-06T10:10:37;98819.47;;;7.96;74.57
47873;BME280;73966;47.438;18.912;2024-01-06T10:13:06;98815.41;;;8.26;74.01
47873;BME280;73966;47.438;18.912;2024-01-06T10:15:35;98827.16;;;8.10;74.70
47873;BME280;73966;47.438;18.912;2024-01-06T10:18:05;98821.50;;;8.15;74.56
47873;BME280;73966;47.438;18.912;2024-01-06T10:20:34;98826.75;;;7.93;75.51
47873;BME280;73966;47.438;18.912;2024-01-06T10:23:04;98819.44;;;8.07;75.36
47873;BME280;73966;47.438;18.912;2024-01-06T10:25:35;98823.53;;;8.00;75.35
47873;BME280;73966;47.438;18.912;2024-01-06T10:28:05;98814.56;;;8.14;75.26
47873;BME280;73966;47.438;18.912;2024-01-06T10:30:37;98814.44;;;8.16;75.31
47873;BME280;73966;47.438;18.912;2024-01-06T10:33:10;98807.56;;;8.59;73.90
47873;BME280;73966;47.438;18.912;2024-01-06T10:35:42;98803.94;;;8.83;72.77
47873;BME280;73966;47.438;18.912;2024-01-06T10:38:11;98800.09;;;8.53;73.80
47873;BME280;73966;47.438;18.912;2024-01-06T10:40:55;98797.94;;;8.70;73.44
47873;BME280;73966;47.438;18.912;2024-01-06T10:43:26;98797.84;;;8.60;74.20
47873;BME280;73966;47.438;18.912;2024-01-06T10:45:56;98798.41;;;8.75;73.77
47873;BME280;73966;47.438;18.912;2024-01-06T10:48:30;98791.00;;;8.69;74.16
47873;BME280;73966;47.438;18.912;2024-01-06T10:51:04;98787.13;;;8.84;73.28
47873;BME280;73966;47.438;18.912;2024-01-06T10:53:35;98781.53;;;9.09;72.59
47873;BME280;73966;47.438;18.912;2024-01-06T10:56:09;98776.81;;;8.81;73.61
47873;BME280;73966;47.438;18.912;2024-01-06T10:58:43;98772.34;;;8.81;74.22
47873;BME280;73966;47.438;18.912;2024-01-06T11:01:20;98767.50;;;9.09;73.36
47873;BME280;73966;47.438;18.912;2024-01-06T11:03:55;98757.72;;;8.77;74.41
47873;BME280;73966;47.438;18.912;2024-01-06T11:06:24;98757.34;;;8.82;73.77
47873;BME280;73966;47.438;18.912;2024-01-06T11:09:13;98753.22;;;9.00;73.86
47873;BME280;73966;47.438;18.912;2024-01-06T11:11:45;98750.87;;;9.18;73.15
47873;BME280;73966;47.438;18.912;2024-01-06T11:14:20;98741.00;;;8.88;74.13
47873;BME280;73966;47.438;18.912;2024-01-06T11:16:54;98730.19;;;9.34;72.71
47873;BME280;73966;47.438;18.912;2024-01-06T11:19:43;98725.78;;;8.80;74.50
47873;BME280;73966;47.438;18.912;2024-01-06T11:22:19;98715.44;;;9.21;73.47
47873;BME280;73966;47.438;18.912;2024-01-06T11:24:48;98715.47;;;9.09;73.91
47873;BME280;73966;47.438;18.912;2024-01-06T11:27:19;98715.69;;;9.18;73.24
47873;BME280;73966;47.438;18.912;2024-01-06T11:29:51;98710.84;;;8.91;74.05
47873;BME280;73966;47.438;18.912;2024-01-06T11:32:25;98705.00;;;9.19;73.41
47873;BME280;73966;47.438;18.912;2024-01-06T11:35:04;98689.94;;;9.31;73.16
47873;BME280;73966;47.438;18.912;2024-01-06T11:37:36;98681.87;;;9.53;72.31
47873;BME280;73966;47.438;18.912;2024-01-06T11:40:09;98663.50;;;9.52;71.91
47873;BME280;73966;47.438;18.912;2024-01-06T11:42:45;98662.25;;;9.14;73.77
47873;BME280;73966;47.438;18.912;2024-01-06T11:45:15;98659.94;;;9.21;73.48
47873;BME280;73966;47.438;18.912;2024-01-06T11:47:47;98653.63;;;9.12;74.15
47873;BME280;73966;47.438;18.912;2024-01-06T11:50:17;98649.12;;;9.45;72.92
47873;BME280;73966;47.438;18.912;2024-01-06T11:52:46;98634.25;;;9.74;71.70
47873;BME280;73966;47.438;18.912;2024-01-06T11:55:16;98648.09;;;9.36;73.08
47873;BME280;73966;47.438;18.912;2024-01-06T11:57:47;98645.13;;;9.29;73.55
47873;BME280;73966;47.438;18.912;2024-01-06T12:00:18;98657.69;;;9.37;72.75
47873;BME280;73966;47.438;18.912;2024-01-06T12:02:47;98661.50;;;9.23;72.93
47873;BME280;73966;47.438;18.912;2024-01-06T12:05:17;98672.59;;;8.85;74.19
47873;BME280;73966;47.438;18.912;2024-01-06T12:07:53;98672.09;;;8.48;75.64
47873;BME280;73966;47.438;18.912;2024-01-06T12:10:24;98662.25;;;8.82;74.56
47873;BME280;73966;47.438;18.912;2024-01-06T12:12:56;98650.19;;;8.68;74.07
47873;BME280;73966;47.438;18.912;2024-01-06T12:15:28;98652.47;;;8.61;74.67
47873;BME280;73966;47.438;18.912;2024-01-06T12:17:58;98648.66;;;8.54;74.78
47873;BME280;73966;47.438;18.912;2024-01-06T12:20:28;98649.22;;;8.69;74.32
47873;BME280;73966;47.438;18.912;2024-01-06T12:22:57;98649.94;;;8.71;74.19
47873;BME280;73966;47.438;18.912;2024-01-06T12:25:28;98642.13;;;8.70;74.25
47873;BME280;73966;47.438;18.912;2024-01-06T12:28:07;98629.75;;;9.02;73.16
47873;BME280;73966;47.438;18.912;2024-01-06T12:30:38;98632.97;;;8.85;73.73
47873;BME280;73966;47.438;18.912;2024-01-06T12:33:07;98637.31;;;8.75;73.88
47873;BME280;73966;47.438;18.912;2024-01-06T12:35:37;98646.78;;;8.77;74.29
47873;BME280;73966;47.438;18.912;2024-01-06T12:38:08;98648.56;;;8.88;73.95
47873;BME280;73966;47.438;18.912;2024-01-06T12:40:37;98653.81;;;8.99;73.23
47873;BME280;73966;47.438;18.912;2024-01-06T12:43:09;98646.38;;;9.14;73.14
47873;BME280;73966;47.438;18.912;2024-01-06T12:45:38;98647.75;;;9.29;72.67
47873;BME280;73966;47.438;18.912;2024-01-06T12:48:07;98658.13;;;9.21;73.08
47873;BME280;73966;47.438;18.912;2024-01-06T12:50:36;98667.16;;;8.86;74.35
47873;BME280;73966;47.438;18.912;2024-01-06T12:53:06;98665.25;;;8.89;74.19
47873;BME280;73966;47.438;18.912;2024-01-06T12:55:35;98673.81;;;8.70;74.42
47873;BME280;73966;47.438;18.912;2024-01-06T12:58:04;98670.66;;;8.21;76.45
47873;BME280;73966;47.438;18.912;2024-01-06T13:00:35;98681.69;;;8.37;76.09
47873;BME280;73966;47.438;18.912;2024-01-06T13:03:10;98680.25;;;8.45;74.94
47873;BME280;73966;47.438;18.912;2024-01-06T13:05:42;98682.72;;;8.69;74.59
47873;BME280;73966;47.438;18.912;2024-01-06T13:08:11;98679.09;;;8.70;74.43
47873;BME280;73966;47.438;18.912;2024-01-06T13:10:42;98670.62;;;8.32;75.51
47873;BME280;73966;47.438;18.912;2024-01-06T13:13:11;98671.56;;;8.65;74.90
47873;BME280;73966;47.438;18.912;2024-01-06T13:15:42;98677.25;;;8.38;75.71
47873;BME280;73966;47.438;18.912;2024-01-06T13:18:11;98676.09;;;9.06;73.27